sensor_id;sensor_type;location;lat;lon;timestamp;P1;durP1;ratioP1;P2;durP2;ratioP2
71836;SDS011;59686;51.716;7.016;2023-06-14T00:01:51;4.05;;;3.65;;
71836;SDS011;59686;51.716;7.016;2023-06-14T00:04:17;4.30;;;3.90;;
71836;SDS011;59686;51.716;7.016;2023-06-14T00:06:44;4.30;;;3.90;;
71836;SDS011;59686;51.716;7.016;2023-06-14T00:09:15;4.90;;;4.00;;
71836;SDS011;59686;51.716;7.016;2023-06-14T00:11:42;4.30;;;3.90;;
71836;SDS011;59686;51.716;7.016;2023-06-14T00:14:08;4.45;;;3.47;;
71836;SDS011;59686;51.716;7.016;2023-06-14T00:16:34;4.28;;;3.88;;
71836;SDS011;59686;51.716;7.016;2023-06-14T00:19:00;5.82;;;3.88;;
71836;SDS011;59686;51.716;7.016;2023-06-14T00:21:30;3.38;;;3.08;;
71836;SDS011;59686;51.716;7.016;2023-06-14T00:23:57;3.90;;;3.50;;
71836;SDS011;59686;51.716;7.016;2023-06-14T00:26:23;4.03;;;3.38;;
71836;SDS011;59686;51.716;7.016;2023-06-14T00:28:49;3.78;;;3.47;;
71836;SDS011;59686;51.716;7.016;2023-06-14T00:31:14;4.65;;;3.30;;
71836;SDS011;59686;51.716;7.016;2023-06-14T00:33:40;3.75;;;3.30;;
71836;SDS011;59686;51.716;7.016;2023-06-14T00:36:06;3.63;;;3.28;;
71836;SDS011;59686;51.716;7.016;2023-06-14T00:38:31;5.63;;;3.47;;
71836;SDS011;59686;51.716;7.016;2023-06-14T00:40:57;4.80;;;3.60;;
71836;SDS011;59686;51.716;7.016;2023-06-14T00:43:22;3.53;;;3.22;;
71836;SDS011;59686;51.716;7.016;2023-06-14T00:45:48;3.90;;;3.45;;
71836;SDS011;59686;51.716;7.016;2023-06-14T00:48:14;3.50;;;3.20;;
71836;SDS011;59686;51.716;7.016;2023-06-14T00:50:40;3.75;;;3.42;;
71836;SDS011;59686;51.716;7.016;2023-06-14T00:53:06;4.05;;;3.58;;
71836;SDS011;59686;51.716;7.016;2023-06-14T00:55:32;3.53;;;3.22;;
71836;SDS011;59686;51.716;7.016;2023-06-14T00:57:58;3.65;;;3.13;;
71836;SDS011;59686;51.716;7.016;2023-06-14T01:00:30;3.50;;;3.20;;
71836;SDS011;59686;51.716;7.016;2023-06-14T01:02:56;3.80;;;3.30;;
71836;SDS011;59686;51.716;7.016;2023-06-14T01:05:22;3.80;;;3.13;;
71836;SDS011;59686;51.716;7.016;2023-06-14T01:08:01;4.10;;;3.15;;
71836;SDS011;59686;51.716;7.016;2023-06-14T01:11:03;3.53;;;3.22;;
71836;SDS011;59686;51.716;7.016;2023-06-14T01:13:37;3.42;;;3.05;;
71836;SDS011;59686;51.716;7.016;2023-06-14T01:16:05;3.70;;;3.40;;
71836;SDS011;59686;51.716;7.016;2023-06-14T01:18:32;3.85;;;3.30;;
71836;SDS011;59686;51.716;7.016;2023-06-14T01:21:00;3.42;;;3.13;;
71836;SDS011;59686;51.716;7.016;2023-06-14T01:23:31;4.22;;;3.17;;
71836;SDS011;59686;51.716;7.016;2023-06-14T01:25:58;4.72;;;3.20;;
71836;SDS011;59686;51.716;7.016;2023-06-14T01:28:25;4.57;;;3.38;;
71836;SDS011;59686;51.716;7.016;2023-06-14T01:30:57;3.40;;;3.10;;
71836;SDS011;59686;51.716;7.016;2023-06-14T01:33:29;4.63;;;3.20;;
71836;SDS011;59686;51.716;7.016;2023-06-14T01:35:57;3.58;;;3.17;;
71836;SDS011;59686;51.716;7.016;2023-06-14T01:38:24;3.80;;;3.45;;
71836;SDS011;59686;51.716;7.016;2023-06-14T01:40:51;3.53;;;3.17;;
71836;SDS011;59686;51.716;7.016;2023-06-14T01:43:29;4.07;;;3.38;;
71836;SDS011;59686;51.716;7.016;2023-06-14T01:45:56;3.72;;;3.30;;
71836;SDS011;59686;51.716;7.016;2023-06-14T01:48:22;5.00;;;3.20;;
71836;SDS011;59686;51.716;7.016;2023-06-14T01:50:49;4.07;;;3.35;;
71836;SDS011;59686;51.716;7.016;2023-06-14T01:53:15;4.35;;;2.90;;
71836;SDS011;59686;51.716;7.016;2023-06-14T01:55:40;4.10;;;2.90;;
71836;SDS011;59686;51.716;7.016;2023-06-14T01:58:08;3.92;;;3.10;;
71836;SDS011;59686;51.716;7.016;2023-06-14T02:00:37;3.30;;;3.00;;
71836;SDS011;59686;51.716;7.016;2023-06-14T02:03:02;3.65;;;3.15;;
71836;SDS011;59686;51.716;7.016;2023-06-14T02:05:31;4.78;;;2.90;;
71836;SDS011;59686;51.716;7.016;2023-06-14T02:07:56;3.38;;;2.80;;
71836;SDS011;59686;51.716;7.016;2023-06-14T02:10:22;4.80;;;2.95;;
71836;SDS011;59686;51.716;7.016;2023-06-14T02:12:48;5.15;;;3.10;;
71836;SDS011;59686;51.716;7.016;2023-06-14T02:17:45;3.35;;;2.90;;
71836;SDS011;59686;51.716;7.016;2023-06-14T02:20:12;5.00;;;3.00;;
71836;SDS011;59686;51.716;7.016;2023-06-14T02:22:38;3.85;;;2.95;;
71836;SDS011;59686;51.716;7.016;2023-06-14T02:25:04;4.10;;;2.85;;
71836;SDS011;59686;51.716;7.016;2023-06-14T02:27:30;4.03;;;2.70;;
71836;SDS011;59686;51.716;7.016;2023-06-14T02:29:56;3.83;;;2.85;;
71836;SDS011;59686;51.716;7.016;2023-06-14T02:32:21;3.22;;;2.70;;
71836;SDS011;59686;51.716;7.016;2023-06-14T02:34:47;3.00;;;2.70;;
71836;SDS011;59686;51.716;7.016;2023-06-14T02:37:15;3.22;;;2.92;;
71836;SDS011;59686;51.716;7.016;2023-06-14T02:39:41;3.92;;;3.00;;
71836;SDS011;59686;51.716;7.016;2023-06-14T02:42:07;3.05;;;2.60;;
71836;SDS011;59686;51.716;7.016;2023-06-14T02:44:32;2.88;;;2.55;;
71836;SDS011;59686;51.716;7.016;2023-06-14T02:46:58;3.83;;;2.80;;
71836;SDS011;59686;51.716;7.016;2023-06-14T02:49:25;3.63;;;2.85;;
71836;SDS011;59686;51.716;7.016;2023-06-14T02:51:51;4.50;;;3.10;;
71836;SDS011;59686;51.716;7.016;2023-06-14T02:57:12;3.10;;;2.60;;
71836;SDS011;59686;51.716;7.016;2023-06-14T02:59:38;4.20;;;2.88;;
71836;SDS011;59686;51.716;7.016;2023-06-14T03:02:03;3.67;;;2.50;;
71836;SDS011;59686;51.716;7.016;2023-06-14T03:04:30;3.13;;;2.75;;
71836;SDS011;59686;51.716;7.016;2023-06-14T03:07:00;4.35;;;2.70;;
71836;SDS011;59686;51.716;7.016;2023-06-14T03:09:27;3.00;;;2.60;;
71836;SDS011;59686;51.716;7.016;2023-06-14T03:11:53;3.95;;;2.67;;
71836;SDS011;59686;51.716;7.016;2023-06-14T03:14:19;3.28;;;2.97;;
71836;SDS011;59686;51.716;7.016;2023-06-14T03:16:46;3.22;;;2.85;;
71836;SDS011;59686;51.716;7.016;2023-06-14T03:19:12;4.18;;;3.05;;
71836;SDS011;59686;51.716;7.016;2023-06-14T03:21:37;4.18;;;2.60;;
71836;SDS011;59686;51.716;7.016;2023-06-14T03:24:08;3.25;;;2.75;;
71836;SDS011;59686;51.716;7.016;2023-06-14T03:26:34;4.10;;;2.80;;
71836;SDS011;59686;51.716;7.016;2023-06-14T03:29:02;4.55;;;2.63;;
71836;SDS011;59686;51.716;7.016;2023-06-14T03:31:29;3.05;;;2.75;;
71836;SDS011;59686;51.716;7.016;2023-06-14T03:33:58;3.05;;;2.72;;
71836;SDS011;59686;51.716;7.016;2023-06-14T03:36:24;3.35;;;2.80;;
71836;SDS011;59686;51.716;7.016;2023-06-14T03:38:50;4.18;;;2.40;;
71836;SDS011;59686;51.716;7.016;2023-06-14T03:41:16;3.22;;;2.58;;
71836;SDS011;59686;51.716;7.016;2023-06-14T03:43:42;4.85;;;2.80;;
71836;SDS011;59686;51.716;7.016;2023-06-14T03:46:07;4.47;;;2.80;;
71836;SDS011;59686;51.716;7.016;2023-06-14T03:48:33;2.55;;;2.35;;
71836;SDS011;59686;51.716;7.016;2023-06-14T03:51:00;4.03;;;2.60;;
71836;SDS011;59686;51.716;7.016;2023-06-14T03:53:25;5.75;;;3.30;;
71836;SDS011;59686;51.716;7.016;2023-06-14T03:55:53;3.20;;;2.80;;
71836;SDS011;59686;51.716;7.016;2023-06-14T03:58:19;3.05;;;2.75;;
71836;SDS011;59686;51.716;7.016;2023-06-14T04:00:44;4.03;;;2.80;;
71836;SDS011;59686;51.716;7.016;2023-06-14T04:03:17;4.43;;;2.70;;
71836;SDS011;59686;51.716;7.016;2023-06-14T04:05:44;4.13;;;2.60;;
71836;SDS011;59686;51.716;7.016;2023-06-14T04:08:14;3.08;;;2.50;;
71836;SDS011;59686;51.716;7.016;2023-06-14T04:10:41;3.95;;;2.67;;
71836;SDS011;59686;51.716;7.016;2023-06-14T04:13:06;4.18;;;2.88;;
71836;SDS011;59686;51.716;7.016;2023-06-14T04:15:32;2.97;;;2.58;;
71836;SDS011;59686;51.716;7.016;2023-06-14T04:17:58;3.30;;;2.90;;
71836;SDS011;59686;51.716;7.016;2023-06-14T04:20:24;3.65;;;2.53;;
71836;SDS011;59686;51.716;7.016;2023-06-14T04:22:50;2.45;;;2.25;;
71836;SDS011;59686;51.716;7.016;2023-06-14T04:25:17;5.65;;;2.75;;
71836;SDS011;59686;51.716;7.016;2023-06-14T04:27:43;3.05;;;2.75;;
71836;SDS011;59686;51.716;7.016;2023-06-14T04:30:09;3.92;;;2.75;;
71836;SDS011;59686;51.716;7.016;2023-06-14T04:32:35;3.00;;;2.70;;
71836;SDS011;59686;51.716;7.016;2023-06-14T04:35:07;2.83;;;2.60;;
71836;SDS011;59686;51.716;7.016;2023-06-14T04:37:33;3.45;;;2.80;;
71836;SDS011;59686;51.716;7.016;2023-06-14T04:39:59;6.50;;;2.92;;
71836;SDS011;59686;51.716;7.016;2023-06-14T04:42:25;3.90;;;2.67;;
71836;SDS011;59686;51.716;7.016;2023-06-14T04:44:55;4.00;;;2.60;;
71836;SDS011;59686;51.716;7.016;2023-06-14T04:47:22;2.92;;;2.50;;
71836;SDS011;59686;51.716;7.016;2023-06-14T04:49:50;2.90;;;2.60;;
71836;SDS011;59686;51.716;7.016;2023-06-14T04:52:18;3.35;;;2.35;;
71836;SDS011;59686;51.716;7.016;2023-06-14T04:54:46;3.22;;;2.92;;
71836;SDS011;59686;51.716;7.016;2023-06-14T04:57:13;3.00;;;2.70;;
71836;SDS011;59686;51.716;7.016;2023-06-14T04:59:42;3.50;;;2.80;;
71836;SDS011;59686;51.716;7.016;2023-06-14T05:04:42;4.28;;;2.70;;
71836;SDS011;59686;51.716;7.016;2023-06-14T05:07:08;4.22;;;2.47;;
71836;SDS011;59686;51.716;7.016;2023-06-14T05:09:34;3.42;;;2.67;;
71836;SDS011;59686;51.716;7.016;2023-06-14T05:12:01;3.47;;;2.58;;
71836;SDS011;59686;51.716;7.016;2023-06-14T05:14:27;3.00;;;2.70;;
71836;SDS011;59686;51.716;7.016;2023-06-14T05:16:53;2.97;;;2.53;;
71836;SDS011;59686;51.716;7.016;2023-06-14T05:19:19;3.03;;;2.53;;
71836;SDS011;59686;51.716;7.016;2023-06-14T05:21:46;2.58;;;2.33;;
71836;SDS011;59686;51.716;7.016;2023-06-14T05:24:12;3.75;;;2.60;;
71836;SDS011;59686;51.716;7.016;2023-06-14T05:26:39;2.92;;;2.40;;
71836;SDS011;59686;51.716;7.016;2023-06-14T05:29:04;2.78;;;2.40;;
71836;SDS011;59686;51.716;7.016;2023-06-14T05:31:31;2.60;;;2.38;;
71836;SDS011;59686;51.716;7.016;2023-06-14T05:33:57;5.40;;;2.50;;
71836;SDS011;59686;51.716;7.016;2023-06-14T05:36:23;3.05;;;2.45;;
71836;SDS011;59686;51.716;7.016;2023-06-14T05:38:50;4.07;;;2.50;;
71836;SDS011;59686;51.716;7.016;2023-06-14T05:43:45;3.17;;;2.45;;
71836;SDS011;59686;51.716;7.016;2023-06-14T05:46:11;2.67;;;2.40;;
71836;SDS011;59686;51.716;7.016;2023-06-14T05:48:37;4.28;;;2.40;;
71836;SDS011;59686;51.716;7.016;2023-06-14T05:51:02;5.05;;;2.80;;
71836;SDS011;59686;51.716;7.016;2023-06-14T05:53:28;5.03;;;2.75;;
71836;SDS011;59686;51.716;7.016;2023-06-14T05:55:54;3.08;;;2.50;;
71836;SDS011;59686;51.716;7.016;2023-06-14T05:58:20;5.30;;;2.65;;
71836;SDS011;59686;51.716;7.016;2023-06-14T06:00:51;2.85;;;2.50;;
71836;SDS011;59686;51.716;7.016;2023-06-14T06:03:18;4.28;;;2.58;;
71836;SDS011;59686;51.716;7.016;2023-06-14T06:05:44;3.63;;;2.30;;
71836;SDS011;59686;51.716;7.016;2023-06-14T06:08:09;4.00;;;2.45;;
71836;SDS011;59686;51.716;7.016;2023-06-14T06:10:35;3.95;;;2.40;;
71836;SDS011;59686;51.716;7.016;2023-06-14T06:13:01;3.35;;;2.60;;
71836;SDS011;59686;51.716;7.016;2023-06-14T06:15:27;2.85;;;2.60;;
71836;SDS011;59686;51.716;7.016;2023-06-14T06:17:52;3.33;;;2.78;;
71836;SDS011;59686;51.716;7.016;2023-06-14T06:20:18;4.28;;;2.50;;
71836;SDS011;59686;51.716;7.016;2023-06-14T06:22:43;2.85;;;2.60;;
71836;SDS011;59686;51.716;7.016;2023-06-14T06:25:09;3.70;;;2.53;;
71836;SDS011;59686;51.716;7.016;2023-06-14T06:27:35;4.45;;;2.38;;
71836;SDS011;59686;51.716;7.016;2023-06-14T06:30:03;3.65;;;2.30;;
71836;SDS011;59686;51.716;7.016;2023-06-14T06:32:29;4.10;;;2.45;;
71836;SDS011;59686;51.716;7.016;2023-06-14T06:34:54;3.85;;;2.45;;
71836;SDS011;59686;51.716;7.016;2023-06-14T06:37:20;2.72;;;2.53;;
71836;SDS011;59686;51.716;7.016;2023-06-14T06:39:45;4.78;;;2.70;;
71836;SDS011;59686;51.716;7.016;2023-06-14T06:42:12;2.53;;;2.30;;
71836;SDS011;59686;51.716;7.016;2023-06-14T06:44:38;2.42;;;2.22;;
71836;SDS011;59686;51.716;7.016;2023-06-14T06:47:04;2.60;;;2.40;;
71836;SDS011;59686;51.716;7.016;2023-06-14T06:49:30;2.72;;;2.30;;
71836;SDS011;59686;51.716;7.016;2023-06-14T06:51:59;2.40;;;2.20;;
71836;SDS011;59686;51.716;7.016;2023-06-14T06:54:26;3.45;;;2.60;;
71836;SDS011;59686;51.716;7.016;2023-06-14T06:56:51;3.08;;;2.35;;
71836;SDS011;59686;51.716;7.016;2023-06-14T06:59:17;2.75;;;2.40;;
71836;SDS011;59686;51.716;7.016;2023-06-14T07:01:43;3.22;;;2.60;;
71836;SDS011;59686;51.716;7.016;2023-06-14T07:04:08;4.32;;;2.25;;
71836;SDS011;59686;51.716;7.016;2023-06-14T07:06:34;2.45;;;2.25;;
71836;SDS011;59686;51.716;7.016;2023-06-14T07:09:00;3.20;;;2.20;;
71836;SDS011;59686;51.716;7.016;2023-06-14T07:11:26;2.78;;;2.20;;
71836;SDS011;59686;51.716;7.016;2023-06-14T07:13:52;3.38;;;2.28;;
71836;SDS011;59686;51.716;7.016;2023-06-14T07:16:18;3.58;;;2.50;;
71836;SDS011;59686;51.716;7.016;2023-06-14T07:18:43;3.33;;;2.60;;
71836;SDS011;59686;51.716;7.016;2023-06-14T07:21:09;3.30;;;2.30;;
71836;SDS011;59686;51.716;7.016;2023-06-14T07:23:35;2.53;;;2.05;;
71836;SDS011;59686;51.716;7.016;2023-06-14T07:26:01;3.45;;;2.38;;
71836;SDS011;59686;51.716;7.016;2023-06-14T07:28:26;4.57;;;2.50;;
71836;SDS011;59686;51.716;7.016;2023-06-14T07:30:52;2.75;;;2.22;;
71836;SDS011;59686;51.716;7.016;2023-06-14T07:33:18;5.13;;;2.35;;
71836;SDS011;59686;51.716;7.016;2023-06-14T07:35:43;4.20;;;2.47;;
71836;SDS011;59686;51.716;7.016;2023-06-14T07:38:09;2.00;;;1.80;;
71836;SDS011;59686;51.716;7.016;2023-06-14T07:40:34;3.78;;;2.40;;
71836;SDS011;59686;51.716;7.016;2023-06-14T07:43:00;3.90;;;2.17;;
71836;SDS011;59686;51.716;7.016;2023-06-14T07:45:27;3.40;;;2.30;;
71836;SDS011;59686;51.716;7.016;2023-06-14T07:47:53;4.25;;;2.47;;
71836;SDS011;59686;51.716;7.016;2023-06-14T07:50:18;2.30;;;2.10;;
71836;SDS011;59686;51.716;7.016;2023-06-14T07:52:44;3.13;;;2.42;;
71836;SDS011;59686;51.716;7.016;2023-06-14T07:55:10;3.58;;;2.10;;
71836;SDS011;59686;51.716;7.016;2023-06-14T07:57:36;2.88;;;2.33;;
71836;SDS011;59686;51.716;7.016;2023-06-14T08:00:03;2.35;;;2.15;;
71836;SDS011;59686;51.716;7.016;2023-06-14T08:02:31;2.70;;;2.00;;
71836;SDS011;59686;51.716;7.016;2023-06-14T08:04:57;2.28;;;2.08;;
71836;SDS011;59686;51.716;7.016;2023-06-14T08:07:23;3.15;;;2.08;;
71836;SDS011;59686;51.716;7.016;2023-06-14T08:09:49;2.17;;;2.00;;
71836;SDS011;59686;51.716;7.016;2023-06-14T08:12:15;2.35;;;2.15;;
71836;SDS011;59686;51.716;7.016;2023-06-14T08:14:41;3.15;;;2.55;;
71836;SDS011;59686;51.716;7.016;2023-06-14T08:17:07;2.53;;;2.10;;
71836;SDS011;59686;51.716;7.016;2023-06-14T08:19:33;2.38;;;2.05;;
71836;SDS011;59686;51.716;7.016;2023-06-14T08:22:01;2.60;;;2.00;;
71836;SDS011;59686;51.716;7.016;2023-06-14T08:24:26;2.15;;;1.80;;
71836;SDS011;59686;51.716;7.016;2023-06-14T08:26:53;3.20;;;2.00;;
71836;SDS011;59686;51.716;7.016;2023-06-14T08:29:18;5.47;;;2.40;;
71836;SDS011;59686;51.716;7.016;2023-06-14T08:31:44;2.78;;;2.00;;
71836;SDS011;59686;51.716;7.016;2023-06-14T08:34:10;2.38;;;2.13;;
71836;SDS011;59686;51.716;7.016;2023-06-14T08:36:37;4.35;;;2.15;;
71836;SDS011;59686;51.716;7.016;2023-06-14T08:39:02;3.42;;;1.88;;
71836;SDS011;59686;51.716;7.016;2023-06-14T08:41:29;5.85;;;2.40;;
71836;SDS011;59686;51.716;7.016;2023-06-14T08:43:55;2.72;;;1.88;;
71836;SDS011;59686;51.716;7.016;2023-06-14T08:46:21;3.95;;;2.17;;
71836;SDS011;59686;51.716;7.016;2023-06-14T08:48:50;3.00;;;1.80;;
71836;SDS011;59686;51.716;7.016;2023-06-14T08:51:22;7.18;;;1.98;;
71836;SDS011;59686;51.716;7.016;2023-06-14T08:53:54;3.85;;;1.95;;
71836;SDS011;59686;51.716;7.016;2023-06-14T08:56:26;6.65;;;1.92;;
71836;SDS011;59686;51.716;7.016;2023-06-14T08:58:56;3.88;;;1.88;;
71836;SDS011;59686;51.716;7.016;2023-06-14T09:01:25;4.78;;;1.95;;
71836;SDS011;59686;51.716;7.016;2023-06-14T09:03:51;2.80;;;1.90;;
71836;SDS011;59686;51.716;7.016;2023-06-14T09:06:20;3.97;;;1.90;;
71836;SDS011;59686;51.716;7.016;2023-06-14T09:08:48;3.40;;;2.10;;
71836;SDS011;59686;51.716;7.016;2023-06-14T09:11:18;7.78;;;2.15;;
71836;SDS011;59686;51.716;7.016;2023-06-14T09:13:44;6.38;;;2.05;;
71836;SDS011;59686;51.716;7.016;2023-06-14T09:16:11;2.83;;;1.60;;
71836;SDS011;59686;51.716;7.016;2023-06-14T09:18:42;2.30;;;1.80;;
71836;SDS011;59686;51.716;7.016;2023-06-14T09:21:10;1.70;;;1.60;;
71836;SDS011;59686;51.716;7.016;2023-06-14T09:23:40;2.85;;;1.80;;
71836;SDS011;59686;51.716;7.016;2023-06-14T09:26:11;2.20;;;1.60;;
71836;SDS011;59686;51.716;7.016;2023-06-14T09:31:18;1.63;;;1.52;;
71836;SDS011;59686;51.716;7.016;2023-06-14T09:33:45;1.60;;;1.50;;
71836;SDS011;59686;51.716;7.016;2023-06-14T09:36:15;2.45;;;1.58;;
71836;SDS011;59686;51.716;7.016;2023-06-14T09:38:58;2.63;;;1.50;;
71836;SDS011;59686;51.716;7.016;2023-06-14T09:41:33;1.77;;;1.67;;
71836;SDS011;59686;51.716;7.016;2023-06-14T09:43:59;1.80;;;1.70;;
71836;SDS011;59686;51.716;7.016;2023-06-14T09:46:28;2.05;;;1.63;;
71836;SDS011;59686;51.716;7.016;2023-06-14T09:48:58;1.60;;;1.50;;
71836;SDS011;59686;51.716;7.016;2023-06-14T09:51:25;1.73;;;1.63;;
71836;SDS011;59686;51.716;7.016;2023-06-14T09:53:52;1.75;;;1.65;;
71836;SDS011;59686;51.716;7.016;2023-06-14T09:56:25;1.63;;;1.50;;
71836;SDS011;59686;51.716;7.016;2023-06-14T09:58:55;2.83;;;1.67;;
71836;SDS011;59686;51.716;7.016;2023-06-14T10:03:55;1.90;;;1.38;;
71836;SDS011;59686;51.716;7.016;2023-06-14T10:06:26;1.60;;;1.50;;
71836;SDS011;59686;51.716;7.016;2023-06-14T10:08:54;1.40;;;1.30;;
71836;SDS011;59686;51.716;7.016;2023-06-14T10:11:25;3.38;;;1.60;;
71836;SDS011;59686;51.716;7.016;2023-06-14T10:13:51;1.48;;;1.38;;
71836;SDS011;59686;51.716;7.016;2023-06-14T10:16:19;1.27;;;1.17;;
71836;SDS011;59686;51.716;7.016;2023-06-14T10:24:16;2.13;;;1.33;;
71836;SDS011;59686;51.716;7.016;2023-06-14T10:26:50;1.60;;;1.40;;
71836;SDS011;59686;51.716;7.016;2023-06-14T10:29:17;1.50;;;1.40;;
71836;SDS011;59686;51.716;7.016;2023-06-14T10:31:48;2.95;;;1.60;;
71836;SDS011;59686;51.716;7.016;2023-06-14T10:34:33;2.08;;;1.20;;
71836;SDS011;59686;51.716;7.016;2023-06-14T10:37:03;1.38;;;1.27;;
71836;SDS011;59686;51.716;7.016;2023-06-14T10:39:43;1.38;;;1.27;;
71836;SDS011;59686;51.716;7.016;2023-06-14T10:42:13;1.55;;;1.45;;
71836;SDS011;59686;51.716;7.016;2023-06-14T10:47:27;1.30;;;1.20;;
71836;SDS011;59686;51.716;7.016;2023-06-14T10:50:02;1.42;;;1.20;;
71836;SDS011;59686;51.716;7.016;2023-06-14T10:52:33;1.50;;;1.40;;
71836;SDS011;59686;51.716;7.016;2023-06-14T10:55:14;1.45;;;1.33;;
71836;SDS011;59686;51.716;7.016;2023-06-14T11:00:11;1.27;;;1.17;;
71836;SDS011;59686;51.716;7.016;2023-06-14T11:08:17;1.65;;;1.40;;
71836;SDS011;59686;51.716;7.016;2023-06-14T11:10:50;2.90;;;1.20;;
71836;SDS011;59686;51.716;7.016;2023-06-14T11:13:19;2.53;;;1.40;;
71836;SDS011;59686;51.716;7.016;2023-06-14T11:15:45;1.40;;;1.30;;
71836;SDS011;59686;51.716;7.016;2023-06-14T11:18:13;1.58;;;1.48;;
71836;SDS011;59686;51.716;7.016;2023-06-14T11:20:39;2.80;;;1.50;;
71836;SDS011;59686;51.716;7.016;2023-06-14T11:23:05;3.65;;;1.65;;
71836;SDS011;59686;51.716;7.016;2023-06-14T11:25:31;2.58;;;1.65;;
71836;SDS011;59686;51.716;7.016;2023-06-14T11:27:57;2.65;;;1.40;;
71836;SDS011;59686;51.716;7.016;2023-06-14T11:30:24;2.80;;;1.65;;
71836;SDS011;59686;51.716;7.016;2023-06-14T11:32:51;3.45;;;1.60;;
71836;SDS011;59686;51.716;7.016;2023-06-14T11:35:18;1.98;;;1.50;;
71836;SDS011;59686;51.716;7.016;2023-06-14T11:37:46;4.18;;;1.50;;
71836;SDS011;59686;51.716;7.016;2023-06-14T11:40:14;1.38;;;1.27;;
71836;SDS011;59686;51.716;7.016;2023-06-14T11:42:40;1.50;;;1.33;;
71836;SDS011;59686;51.716;7.016;2023-06-14T11:45:10;1.75;;;1.40;;
71836;SDS011;59686;51.716;7.016;2023-06-14T11:47:37;2.25;;;1.52;;
71836;SDS011;59686;51.716;7.016;2023-06-14T11:50:16;4.03;;;1.33;;
71836;SDS011;59686;51.716;7.016;2023-06-14T11:52:42;1.60;;;1.50;;
71836;SDS011;59686;51.716;7.016;2023-06-14T11:55:08;2.08;;;1.42;;
71836;SDS011;59686;51.716;7.016;2023-06-14T11:57:34;1.50;;;1.40;;
71836;SDS011;59686;51.716;7.016;2023-06-14T12:00:04;3.08;;;1.50;;
71836;SDS011;59686;51.716;7.016;2023-06-14T12:02:42;1.35;;;1.20;;
71836;SDS011;59686;51.716;7.016;2023-06-14T12:05:08;3.35;;;1.42;;
71836;SDS011;59686;51.716;7.016;2023-06-14T12:07:38;2.10;;;1.30;;
71836;SDS011;59686;51.716;7.016;2023-06-14T12:10:08;1.65;;;1.35;;
71836;SDS011;59686;51.716;7.016;2023-06-14T12:12:38;1.42;;;1.33;;
71836;SDS011;59686;51.716;7.016;2023-06-14T12:15:06;2.70;;;1.50;;
71836;SDS011;59686;51.716;7.016;2023-06-14T12:17:33;2.30;;;1.45;;
71836;SDS011;59686;51.716;7.016;2023-06-14T12:20:04;2.58;;;1.40;;
71836;SDS011;59686;51.716;7.016;2023-06-14T12:22:33;1.52;;;1.30;;
71836;SDS011;59686;51.716;7.016;2023-06-14T12:24:59;1.75;;;1.40;;
71836;SDS011;59686;51.716;7.016;2023-06-14T12:27:25;2.58;;;1.40;;
71836;SDS011;59686;51.716;7.016;2023-06-14T12:30:03;2.50;;;1.67;;
71836;SDS011;59686;51.716;7.016;2023-06-14T12:32:30;2.75;;;1.40;;
71836;SDS011;59686;51.716;7.016;2023-06-14T12:34:56;2.28;;;1.50;;
71836;SDS011;59686;51.716;7.016;2023-06-14T12:37:21;2.15;;;1.48;;
71836;SDS011;59686;51.716;7.016;2023-06-14T12:39:47;1.98;;;1.40;;
71836;SDS011;59686;51.716;7.016;2023-06-14T12:42:13;1.50;;;1.40;;
71836;SDS011;59686;51.716;7.016;2023-06-14T12:44:39;1.58;;;1.40;;
71836;SDS011;59686;51.716;7.016;2023-06-14T12:47:06;2.95;;;1.55;;
71836;SDS011;59686;51.716;7.016;2023-06-14T12:49:32;1.60;;;1.50;;
71836;SDS011;59686;51.716;7.016;2023-06-14T12:51:58;1.73;;;1.42;;
71836;SDS011;59686;51.716;7.016;2023-06-14T12:54:24;1.50;;;1.40;;
71836;SDS011;59686;51.716;7.016;2023-06-14T12:56:52;2.70;;;1.60;;
71836;SDS011;59686;51.716;7.016;2023-06-14T12:59:20;3.00;;;1.50;;
71836;SDS011;59686;51.716;7.016;2023-06-14T13:01:45;5.47;;;1.70;;
71836;SDS011;59686;51.716;7.016;2023-06-14T13:04:14;2.00;;;1.40;;
71836;SDS011;59686;51.716;7.016;2023-06-14T13:06:45;2.10;;;1.70;;
71836;SDS011;59686;51.716;7.016;2023-06-14T13:09:11;1.55;;;1.45;;
71836;SDS011;59686;51.716;7.016;2023-06-14T13:11:37;3.03;;;1.60;;
71836;SDS011;59686;51.716;7.016;2023-06-14T13:14:03;2.65;;;1.77;;
71836;SDS011;59686;51.716;7.016;2023-06-14T13:16:29;2.72;;;1.70;;
71836;SDS011;59686;51.716;7.016;2023-06-14T13:18:55;2.05;;;1.60;;
71836;SDS011;59686;51.716;7.016;2023-06-14T13:21:20;2.28;;;1.90;;
71836;SDS011;59686;51.716;7.016;2023-06-14T13:23:46;2.38;;;1.88;;
71836;SDS011;59686;51.716;7.016;2023-06-14T13:26:11;1.92;;;1.73;;
71836;SDS011;59686;51.716;7.016;2023-06-14T13:28:37;2.30;;;1.95;;
71836;SDS011;59686;51.716;7.016;2023-06-14T13:31:03;2.13;;;1.70;;
71836;SDS011;59686;51.716;7.016;2023-06-14T13:33:28;1.80;;;1.70;;
71836;SDS011;59686;51.716;7.016;2023-06-14T13:35:54;2.00;;;1.88;;
71836;SDS011;59686;51.716;7.016;2023-06-14T13:38:20;4.38;;;1.83;;
71836;SDS011;59686;51.716;7.016;2023-06-14T13:40:45;2.13;;;1.88;;
71836;SDS011;59686;51.716;7.016;2023-06-14T13:43:11;2.42;;;1.80;;
71836;SDS011;59686;51.716;7.016;2023-06-14T13:45:37;2.35;;;1.75;;
71836;SDS011;59686;51.716;7.016;2023-06-14T13:48:02;3.75;;;2.00;;
71836;SDS011;59686;51.716;7.016;2023-06-14T13:50:28;2.10;;;1.77;;
71836;SDS011;59686;51.716;7.016;2023-06-14T13:52:54;4.40;;;1.90;;
71836;SDS011;59686;51.716;7.016;2023-06-14T13:55:19;1.80;;;1.70;;
71836;SDS011;59686;51.716;7.016;2023-06-14T13:57:45;2.70;;;1.80;;
71836;SDS011;59686;51.716;7.016;2023-06-14T14:02:57;1.98;;;1.77;;
71836;SDS011;59686;51.716;7.016;2023-06-14T14:05:24;3.05;;;2.00;;
71836;SDS011;59686;51.716;7.016;2023-06-14T14:07:54;2.22;;;2.00;;
71836;SDS011;59686;51.716;7.016;2023-06-14T14:10:20;2.22;;;2.03;;
71836;SDS011;59686;51.716;7.016;2023-06-14T14:12:46;2.53;;;2.00;;
71836;SDS011;59686;51.716;7.016;2023-06-14T14:15:12;2.20;;;2.00;;
71836;SDS011;59686;51.716;7.016;2023-06-14T14:17:40;2.20;;;2.00;;
71836;SDS011;59686;51.716;7.016;2023-06-14T14:20:06;2.22;;;2.03;;
71836;SDS011;59686;51.716;7.016;2023-06-14T14:22:32;2.88;;;2.03;;
71836;SDS011;59686;51.716;7.016;2023-06-14T14:24:58;2.25;;;1.88;;
71836;SDS011;59686;51.716;7.016;2023-06-14T14:27:23;2.95;;;2.22;;
71836;SDS011;59686;51.716;7.016;2023-06-14T14:29:49;2.67;;;1.80;;
71836;SDS011;59686;51.716;7.016;2023-06-14T14:32:15;2.30;;;2.10;;
71836;SDS011;59686;51.716;7.016;2023-06-14T14:34:41;2.75;;;1.90;;
71836;SDS011;59686;51.716;7.016;2023-06-14T14:39:36;2.28;;;2.00;;
71836;SDS011;59686;51.716;7.016;2023-06-14T14:42:02;3.58;;;2.25;;
71836;SDS011;59686;51.716;7.016;2023-06-14T14:44:28;3.00;;;2.17;;
71836;SDS011;59686;51.716;7.016;2023-06-14T14:46:54;4.35;;;2.25;;
71836;SDS011;59686;51.716;7.016;2023-06-14T14:49:19;2.58;;;2.20;;
71836;SDS011;59686;51.716;7.016;2023-06-14T14:51:45;2.40;;;2.20;;
71836;SDS011;59686;51.716;7.016;2023-06-14T14:54:14;3.38;;;2.00;;
71836;SDS011;59686;51.716;7.016;2023-06-14T14:56:39;2.40;;;2.20;;
71836;SDS011;59686;51.716;7.016;2023-06-14T14:59:05;3.80;;;2.08;;
71836;SDS011;59686;51.716;7.016;2023-06-14T15:01:31;3.08;;;2.50;;
71836;SDS011;59686;51.716;7.016;2023-06-14T15:03:56;3.70;;;2.45;;
71836;SDS011;59686;51.716;7.016;2023-06-14T15:06:25;2.40;;;2.20;;
71836;SDS011;59686;51.716;7.016;2023-06-14T15:08:51;4.28;;;2.33;;
71836;SDS011;59686;51.716;7.016;2023-06-14T15:11:17;5.35;;;2.10;;
71836;SDS011;59686;51.716;7.016;2023-06-14T15:13:42;2.33;;;2.13;;
71836;SDS011;59686;51.716;7.016;2023-06-14T15:16:08;3.70;;;2.30;;
71836;SDS011;59686;51.716;7.016;2023-06-14T15:18:34;3.03;;;2.20;;
71836;SDS011;59686;51.716;7.016;2023-06-14T15:21:02;5.10;;;2.30;;
71836;SDS011;59686;51.716;7.016;2023-06-14T15:23:28;2.50;;;2.30;;
71836;SDS011;59686;51.716;7.016;2023-06-14T15:25:53;3.58;;;2.33;;